Time;durP1;ratioP1;P1;durP2;ratioP2;P2;SDS_P1;SDS_P2;PMS_P1;PMS_P2;Temp;Humidity;BMP_temperature;BMP_pressure;BME280_temperature;BME280_humidity;BME280_pressure;Samples;Min_cycle;Max_cycle;Signal;HPM_P1;HPM_P2
2021/05/01 00:01:48;;;;;;;10.95;8.15;;;;;;;12.41;81.49;99126.92;129968;1101;22617;-61
2021/05/01 00:04:16;;;;;;;11.40;8.85;;;;;;;12.37;81.16;99127.48;129947;1101;22545;-61
2021/05/01 00:06:44;;;;;;;11.65;7.80;;;;;;;12.33;80.97;99128.30;129991;1101;22542;-61
2021/05/01 00:09:13;;;;;;;11.15;7.80;;;;;;;12.28;80.73;99117.38;129941;1101;23358;-61
2021/05/01 00:11:41;;;;;;;11.63;8.08;;;;;;;12.19;80.95;99119.89;129955;1101;22652;-61
2021/05/01 00:14:09;;;;;;;11.60;8.63;;;;;;;12.14;80.74;99121.80;129966;1101;23040;-62
2021/05/01 00:16:36;;;;;;;12.30;9.05;;;;;;;12.07;80.53;99115.84;129990;1101;22542;-61
2021/05/01 00:19:06;;;;;;;11.58;8.15;;;;;;;12.03;80.79;99121.84;129888;1101;22650;-61
2021/05/01 00:21:34;;;;;;;12.20;8.48;;;;;;;11.97;80.89;99112.02;129972;1101;22573;-61
2021/05/01 00:24:02;;;;;;;9.03;6.38;;;;;;;11.94;81.00;99107.14;129895;1101;22629;-61
2021/05/01 00:26:31;;;;;;;10.88;7.48;;;;;;;11.90;80.72;99110.69;129977;1101;22553;-61
2021/05/01 00:28:59;;;;;;;8.55;6.50;;;;;;;11.85;80.79;99105.23;129934;1101;22652;-62
2021/05/01 00:31:28;;;;;;;9.98;6.93;;;;;;;11.79;80.88;99111.81;129932;1101;23347;-61
2021/05/01 00:33:56;;;;;;;7.45;6.13;;;;;;;11.73;80.48;99108.22;129955;1101;22612;-62
2021/05/01 00:36:24;;;;;;;7.98;6.18;;;;;;;11.65;80.01;99119.71;129978;1101;22696;-61
2021/05/01 00:38:54;;;;;;;6.68;5.53;;;;;;;11.59;80.29;99120.80;129968;1101;22649;-62
2021/05/01 00:41:22;;;;;;;12.35;7.28;;;;;;;11.51;79.96;99124.09;129914;1101;22677;-61
2021/05/01 00:43:50;;;;;;;9.45;6.80;;;;;;;11.44;79.95;99134.44;129962;1101;22547;-61
2021/05/01 00:46:17;;;;;;;9.55;6.93;;;;;;;11.37;80.07;99131.19;129941;1101;22573;-61
2021/05/01 00:48:45;;;;;;;9.18;6.60;;;;;;;11.31;79.93;99136.63;129943;1101;23339;-61
2021/05/01 00:51:13;;;;;;;9.18;7.25;;;;;;;11.26;79.92;99146.70;129900;1101;22547;-61
2021/05/01 00:53:41;;;;;;;8.05;7.03;;;;;;;11.22;79.90;99138.27;129983;1101;22618;-61
2021/05/01 00:56:09;;;;;;;11.50;8.08;;;;;;;11.19;80.04;99137.98;129916;1101;23436;-61
2021/05/01 00:58:37;;;;;;;12.40;8.93;;;;;;;11.15;80.20;99137.70;129943;1101;22622;-61
2021/05/01 01:03:37;;;;;;;12.58;10.30;;;;;;;11.05;80.23;99142.33;129974;1101;22593;-62
2021/05/01 01:06:05;;;;;;;18.20;11.90;;;;;;;10.98;79.95;99146.13;129963;1101;22555;-62
2021/05/01 01:08:33;;;;;;;13.43;8.75;;;;;;;10.94;80.01;99141.50;129831;1101;22582;-61
2021/05/01 01:11:02;;;;;;;9.70;8.50;;;;;;;10.89;79.88;99139.58;130290;1098;22541;-61
2021/05/01 01:13:31;;;;;;;11.30;8.33;;;;;;;10.83;79.52;99146.09;130209;1098;22558;-61
2021/05/01 01:15:59;;;;;;;13.88;9.80;;;;;;;10.78;79.84;99148.82;130120;1098;22835;-61
2021/05/01 01:18:27;;;;;;;14.13;10.90;;;;;;;10.76;80.05;99150.17;130320;1098;22662;-61
2021/05/01 01:20:59;;;;;;;14.70;9.43;;;;;;;10.72;79.89;99162.69;130279;1098;22769;-61
2021/05/01 01:23:28;;;;;;;11.93;8.80;;;;;;;10.66;79.96;99159.14;130298;1098;23649;-61
2021/05/01 01:25:56;;;;;;;8.45;6.23;;;;;;;10.62;79.54;99164.30;130105;1098;22652;-61
2021/05/01 01:28:25;;;;;;;15.88;10.18;;;;;;;10.58;79.88;99159.64;130336;1098;22554;-61
2021/05/01 01:30:54;;;;;;;12.35;8.33;;;;;;;10.54;79.88;99169.42;130293;1098;23136;-62
2021/05/01 01:33:21;;;;;;;16.18;8.30;;;;;;;10.45;79.55;99169.13;130254;1098;23198;-61
2021/05/01 01:35:49;;;;;;;10.08;6.10;;;;;;;10.42;79.20;99171.55;130330;1098;23311;-61
2021/05/01 01:38:17;;;;;;;11.93;7.53;;;;;;;10.38;79.53;99165.02;130282;1098;22562;-61
2021/05/01 01:40:45;;;;;;;11.73;6.43;;;;;;;10.34;79.35;99169.35;130361;1098;22600;-61
2021/05/01 01:43:13;;;;;;;15.95;8.88;;;;;;;10.28;79.54;99169.31;130253;1098;22544;-61
2021/05/01 01:45:41;;;;;;;10.25;7.58;;;;;;;10.27;79.40;99169.58;130286;1098;22584;-61
2021/05/01 01:48:09;;;;;;;10.95;8.00;;;;;;;10.24;79.14;99170.91;130266;1098;22589;-62
2021/05/01 01:50:37;;;;;;;10.70;6.78;;;;;;;10.21;79.21;99181.54;130287;1098;22518;-61
2021/05/01 01:53:06;;;;;;;11.35;6.83;;;;;;;10.17;78.74;99183.93;130033;1099;23310;-61
2021/05/01 01:55:35;;;;;;;10.03;6.53;;;;;;;10.14;78.84;99187.17;130316;1098;22567;-61
2021/05/01 01:58:03;;;;;;;11.28;7.23;;;;;;;10.10;79.18;99186.05;130243;1098;22551;-62
2021/05/01 02:00:31;;;;;;;10.80;6.97;;;;;;;10.06;78.79;99195.84;130053;1098;22613;-61
2021/05/01 02:02:59;;;;;;;9.33;6.53;;;;;;;10.06;79.02;99197.75;130299;1098;23157;-61
2021/05/01 02:05:27;;;;;;;9.87;7.33;;;;;;;10.03;78.87;99206.44;129770;1098;22774;-61
2021/05/01 02:07:57;;;;;;;11.08;7.20;;;;;;;10.03;79.47;99203.70;130263;1098;22598;-61
2021/05/01 02:10:25;;;;;;;17.73;11.88;;;;;;;10.02;80.01;99204.79;130345;1098;23300;-61
2021/05/01 02:12:53;;;;;;;16.87;11.63;;;;;;;10.02;80.20;99210.23;130229;1098;23320;-61
2021/05/01 02:15:26;;;;;;;21.70;12.75;;;;;;;10.00;80.48;99217.84;130322;1098;22544;-61
2021/05/01 02:17:54;;;;;;;18.05;11.38;;;;;;;9.99;80.31;99216.20;130309;1098;23467;-61
2021/05/01 02:20:24;;;;;;;14.30;10.65;;;;;;;9.98;80.37;99217.27;130342;1098;22527;-61
2021/05/01 02:22:52;;;;;;;12.40;9.18;;;;;;;9.97;80.84;99223.80;130148;1098;23404;-61
2021/05/01 02:25:20;;;;;;;9.13;7.05;;;;;;;9.96;80.82;99222.97;130246;1098;22623;-61
2021/05/01 02:27:48;;;;;;;10.48;7.55;;;;;;;9.97;80.83;99212.91;130305;1098;22508;-61
2021/05/01 02:30:18;;;;;;;7.75;6.85;;;;;;;9.99;81.25;99219.73;130282;1098;22509;-61
2021/05/01 02:32:46;;;;;;;6.85;6.15;;;;;;;10.01;81.73;99223.02;130332;1098;23554;-61
2021/05/01 02:35:17;;;;;;;7.07;6.00;;;;;;;10.03;81.81;99220.86;129824;1098;22657;-59
2021/05/01 02:37:45;;;;;;;7.37;6.37;;;;;;;10.05;81.93;99218.70;130348;1098;22503;-59
2021/05/01 02:40:14;;;;;;;8.88;6.50;;;;;;;10.06;82.08;99219.52;130321;1098;23319;-59
2021/05/01 02:42:42;;;;;;;8.40;6.93;;;;;;;10.06;81.84;99225.79;130158;1098;22544;-59
2021/05/01 02:45:14;;;;;;;9.53;6.57;;;;;;;10.08;82.42;99226.35;130266;1098;23222;-59
2021/05/01 02:47:42;;;;;;;8.53;7.63;;;;;;;10.10;82.63;99218.72;130352;1098;22741;-59
2021/05/01 02:50:11;;;;;;;9.95;7.75;;;;;;;10.13;82.66;99223.64;130330;1098;22564;-59
2021/05/01 02:52:38;;;;;;;8.60;7.30;;;;;;;10.15;82.44;99234.27;130351;1098;22692;-59
2021/05/01 02:55:07;;;;;;;8.18;7.08;;;;;;;10.17;82.98;99235.66;130342;1098;22690;-59
2021/05/01 02:57:35;;;;;;;9.58;7.80;;;;;;;10.19;83.04;99227.27;130367;1098;22500;-59
2021/05/01 03:00:08;;;;;;;8.70;6.93;;;;;;;10.21;83.32;99234.09;130263;1098;22562;-59
2021/05/01 03:02:36;;;;;;;9.23;7.60;;;;;;;10.24;83.31;99236.27;130315;1098;22519;-59
2021/05/01 03:05:05;;;;;;;12.13;8.10;;;;;;;10.26;83.14;99241.45;130269;1098;22625;-59
2021/05/01 03:07:36;;;;;;;8.33;6.73;;;;;;;10.30;83.21;99249.92;130311;1098;22631;-59
2021/05/01 03:10:05;;;;;;;7.23;6.30;;;;;;;10.31;83.27;99257.83;130099;1098;23612;-59
2021/05/01 03:12:33;;;;;;;9.95;7.50;;;;;;;10.35;83.26;99266.30;130307;1098;22551;-58
2021/05/01 03:15:03;;;;;;;10.58;7.98;;;;;;;10.37;83.43;99264.97;130113;1098;26172;-58
2021/05/01 03:17:32;;;;;;;12.20;8.53;;;;;;;10.41;83.71;99259.79;130052;1099;22646;-59
2021/05/01 03:20:01;;;;;;;10.85;8.53;;;;;;;10.45;83.19;99258.19;130222;1098;23517;-59
2021/05/01 03:22:29;;;;;;;11.40;8.38;;;;;;;10.46;83.13;99259.83;130304;1098;22558;-59
2021/05/01 03:24:57;;;;;;;12.88;9.10;;;;;;;10.53;83.09;99265.88;130362;1098;22488;-58
2021/05/01 03:27:25;;;;;;;9.08;7.70;;;;;;;10.56;83.02;99265.33;130320;1098;23221;-58
2021/05/01 03:29:54;;;;;;;10.63;8.88;;;;;;;10.55;82.74;99272.67;130307;1098;23180;-58
2021/05/01 03:32:21;;;;;;;8.53;7.63;;;;;;;10.57;82.95;99280.59;130274;1098;22552;-59
2021/05/01 03:34:50;;;;;;;11.18;8.68;;;;;;;10.60;82.89;99274.62;130314;1098;23165;-58
2021/05/01 03:37:17;;;;;;;11.53;8.65;;;;;;;10.64;83.47;99278.46;130278;1098;22653;-59
2021/05/01 03:39:45;;;;;;;12.53;9.03;;;;;;;10.72;83.30;99274.41;130287;1098;22977;-59
2021/05/01 03:42:13;;;;;;;13.35;9.30;;;;;;;10.79;83.27;99275.81;130312;1098;22568;-59
2021/05/01 03:44:41;;;;;;;13.05;8.48;;;;;;;10.87;83.43;99277.20;130186;1098;23256;-59
2021/05/01 03:47:09;;;;;;;13.15;9.88;;;;;;;10.96;83.40;99284.59;130313;1098;22661;-59
2021/05/01 03:49:38;;;;;;;13.90;10.25;;;;;;;11.07;83.30;99284.66;130278;1098;23038;-59
2021/05/01 03:52:06;;;;;;;16.08;11.33;;;;;;;11.17;83.44;99285.50;130190;1098;22708;-58
2021/05/01 03:54:34;;;;;;;16.13;10.80;;;;;;;11.27;83.38;99296.44;130006;1098;22648;-59
2021/05/01 03:57:02;;;;;;;21.13;11.90;;;;;;;11.37;83.41;99292.94;130292;1098;22519;-59
2021/05/01 03:59:30;;;;;;;16.83;11.25;;;;;;;11.47;83.28;99294.86;130288;1098;22542;-58
2021/05/01 04:01:58;;;;;;;18.93;13.33;;;;;;;11.58;83.20;99299.25;130219;1098;22607;-59
2021/05/01 04:04:27;;;;;;;19.18;13.58;;;;;;;11.67;83.04;99306.66;130299;1098;22522;-59
2021/05/01 04:06:55;;;;;;;24.18;14.10;;;;;;;11.78;82.80;99307.51;130326;1098;22526;-59
2021/05/01 04:09:23;;;;;;;23.90;14.35;;;;;;;11.87;82.90;99305.05;130277;1098;22642;-59
2021/05/01 04:11:51;;;;;;;22.53;13.58;;;;;;;11.97;82.60;99307.81;130004;1099;22521;-59
2021/05/01 04:14:19;;;;;;;22.83;14.58;;;;;;;12.04;82.45;99309.16;129968;1098;22525;-59
2021/05/01 04:16:47;;;;;;;24.03;15.55;;;;;;;12.15;82.48;99311.89;130364;1098;22618;-57
2021/05/01 04:19:15;;;;;;;18.40;12.45;;;;;;;12.29;82.73;99318.44;130290;1098;22767;-57
2021/05/01 04:21:43;;;;;;;18.75;13.75;;;;;;;12.43;82.40;99315.97;130381;1098;23054;-57
2021/05/01 04:24:11;;;;;;;19.43;13.13;;;;;;;12.56;82.43;99316.22;130306;1098;22566;-57
2021/05/01 04:26:39;;;;;;;17.13;11.93;;;;;;;12.70;82.21;99317.28;130266;1098;23509;-58
2021/05/01 04:29:07;;;;;;;17.90;12.30;;;;;;;12.86;82.10;99312.59;130272;1098;23098;-58
2021/05/01 04:31:35;;;;;;;22.63;12.33;;;;;;;13.03;81.99;99315.83;130367;1098;22527;-57
2021/05/01 04:34:04;;;;;;;26.28;14.68;;;;;;;13.20;81.80;99309.23;130283;1098;22573;-56
2021/05/01 04:36:32;;;;;;;18.80;13.73;;;;;;;13.34;81.18;99310.27;130292;1098;22549;-58
2021/05/01 04:38:59;;;;;;;21.20;12.90;;;;;;;13.47;80.68;99317.03;129974;1098;22588;-58
2021/05/01 04:41:27;;;;;;;19.25;14.48;;;;;;;13.59;80.86;99314.77;130318;1098;22609;-58
2021/05/01 04:43:55;;;;;;;17.38;14.03;;;;;;;13.69;80.76;99321.03;130306;1098;23619;-58
2021/05/01 04:46:23;;;;;;;16.03;12.90;;;;;;;13.83;79.77;99321.22;127834;1093;22771;-58
2021/05/01 04:48:51;;;;;;;20.30;13.50;;;;;;;13.92;79.90;99322.23;125351;1098;22733;-59
2021/05/01 04:51:19;;;;;;;15.38;11.83;;;;;;;14.05;79.67;99320.77;130231;1098;23383;-59
2021/05/01 04:53:47;;;;;;;17.63;12.30;;;;;;;14.16;79.39;99314.92;130296;1098;22561;-59
2021/05/01 04:56:15;;;;;;;17.33;12.10;;;;;;;14.31;78.70;99315.89;130200;1098;22551;-59
2021/05/01 04:58:44;;;;;;;15.48;12.20;;;;;;;14.42;78.51;99315.58;130323;1098;22556;-60
2021/05/01 05:01:12;;;;;;;19.95;12.48;;;;;;;14.56;78.36;99320.38;130141;1098;22590;-59
2021/05/01 05:03:40;;;;;;;17.38;13.65;;;;;;;14.67;77.71;99313.69;130328;1098;22576;-59
2021/05/01 05:06:08;;;;;;;17.18;13.35;;;;;;;14.74;76.99;99316.88;130136;1098;22596;-59
2021/05/01 05:08:36;;;;;;;16.00;12.63;;;;;;;14.75;76.34;99310.30;130064;1100;23002;-59
2021/05/01 05:11:05;;;;;;;19.00;14.10;;;;;;;14.77;76.25;99310.83;130312;1098;22561;-59
2021/05/01 05:13:33;;;;;;;16.98;13.38;;;;;;;14.80;76.40;99313.81;130307;1098;22982;-59
2021/05/01 05:16:02;;;;;;;18.83;12.15;;;;;;;14.87;75.85;99316.19;128714;1098;24269;-57
2021/05/01 05:18:30;;;;;;;18.25;12.40;;;;;;;14.94;75.87;99318.60;130288;1098;23133;-58
2021/05/01 05:20:58;;;;;;;16.60;13.10;;;;;;;14.95;75.94;99317.50;130367;1098;22572;-57
2021/05/01 05:23:27;;;;;;;17.48;13.20;;;;;;;14.95;76.18;99323.80;130383;1098;22544;-58
2021/05/01 05:25:54;;;;;;;16.43;13.00;;;;;;;15.01;75.31;99317.13;130386;1098;22544;-58
2021/05/01 05:28:22;;;;;;;16.98;13.60;;;;;;;15.05;75.53;99315.45;130400;1098;22797;-58
2021/05/01 05:30:50;;;;;;;16.23;13.70;;;;;;;15.08;75.20;99312.13;130270;1098;22631;-58
2021/05/01 05:33:18;;;;;;;18.63;13.00;;;;;;;15.13;74.71;99316.74;130386;1098;23342;-58
2021/05/01 05:35:48;;;;;;;22.10;12.73;;;;;;;15.16;74.67;99318.88;130346;1098;24228;-58
2021/05/01 05:38:16;;;;;;;14.93;12.53;;;;;;;15.18;74.78;99311.98;130357;1098;22509;-57
2021/05/01 05:40:44;;;;;;;19.55;13.73;;;;;;;15.25;74.52;99313.58;130354;1098;22531;-58
2021/05/01 05:43:12;;;;;;;17.50;13.08;;;;;;;15.30;74.46;99317.05;130384;1098;22518;-57
2021/05/01 05:45:41;;;;;;;18.88;14.13;;;;;;;15.36;74.41;99312.33;130382;1098;23421;-58
2021/05/01 05:48:09;;;;;;;17.95;13.03;;;;;;;15.38;74.35;99316.41;130336;1098;22520;-58
2021/05/01 05:50:37;;;;;;;16.90;14.43;;;;;;;15.41;74.84;99324.07;130207;1098;22544;-58
2021/05/01 05:53:05;;;;;;;18.63;13.48;;;;;;;15.46;74.67;99321.23;130301;1098;22538;-58
2021/05/01 05:55:33;;;;;;;19.00;14.13;;;;;;;15.55;74.20;99326.94;129599;1098;22739;-59
2021/05/01 05:58:01;;;;;;;19.85;14.63;;;;;;;15.62;73.98;99321.88;130303;1098;22606;-59
2021/05/01 06:00:29;;;;;;;20.23;15.05;;;;;;;15.67;73.94;99321.82;130371;1098;22562;-59
2021/05/01 06:03:00;;;;;;;19.55;14.38;;;;;;;15.70;73.61;99323.16;130321;1098;23381;-59
2021/05/01 06:05:30;;;;;;;19.53;14.70;;;;;;;15.69;73.39;99321.53;130337;1098;22517;-59
2021/05/01 06:08:04;;;;;;;17.93;15.10;;;;;;;15.60;73.48;99320.53;130007;1098;22563;-59
2021/05/01 06:10:33;;;;;;;23.18;15.68;;;;;;;15.56;73.50;99323.08;130241;1098;23508;-60
2021/05/01 06:13:02;;;;;;;17.73;14.30;;;;;;;15.54;73.61;99331.58;130308;1098;22597;-58
2021/05/01 06:15:30;;;;;;;18.03;12.85;;;;;;;15.57;73.81;99340.38;130334;1098;22572;-59
2021/05/01 06:18:00;;;;;;;14.85;11.95;;;;;;;15.60;74.07;99329.59;130133;1098;23627;-59
2021/05/01 06:20:28;;;;;;;19.60;13.63;;;;;;;15.64;73.59;99330.64;130034;1098;22623;-59
2021/05/01 06:22:56;;;;;;;17.65;13.80;;;;;;;15.64;73.14;99324.33;130313;1098;23333;-59
2021/05/01 06:25:24;;;;;;;17.88;13.88;;;;;;;15.62;73.47;99326.55;130031;1098;23086;-59
2021/05/01 06:27:52;;;;;;;21.13;14.08;;;;;;;15.63;73.92;99328.19;129981;1098;22637;-59
2021/05/01 06:30:21;;;;;;;16.33;14.15;;;;;;;15.68;73.89;99336.38;130346;1098;22662;-59
2021/05/01 06:32:51;;;;;;;17.18;13.25;;;;;;;15.74;73.31;99337.91;130334;1098;22567;-58
2021/05/01 06:35:19;;;;;;;17.65;14.05;;;;;;;15.77;73.14;99335.40;130315;1098;22528;-58
2021/05/01 06:37:50;;;;;;;19.53;12.45;;;;;;;15.82;73.47;99348.26;130034;1100;22632;-59
2021/05/01 06:40:21;;;;;;;17.18;13.15;;;;;;;15.88;73.25;99350.61;130240;1098;22569;-59
2021/05/01 06:42:54;;;;;;;15.63;13.10;;;;;;;15.98;72.93;99359.84;130143;1098;22544;-59
2021/05/01 06:45:22;;;;;;;17.40;12.70;;;;;;;16.03;72.66;99359.75;130273;1098;22529;-59
2021/05/01 06:48:12;;;;;;;17.78;13.00;;;;;;;16.09;72.31;99353.08;130024;1100;22670;-59
2021/05/01 06:50:40;;;;;;;15.43;13.00;;;;;;;16.12;72.55;99352.48;130303;1098;22652;-59
2021/05/01 06:53:11;;;;;;;17.38;14.38;;;;;;;16.12;71.25;99344.23;130209;1099;22584;-59
2021/05/01 06:55:39;;;;;;;18.33;13.18;;;;;;;16.11;71.98;99357.16;130006;1098;23159;-58
2021/05/01 06:58:07;;;;;;;16.83;12.68;;;;;;;16.13;71.55;99354.94;130068;1098;22642;-59
2021/05/01 07:00:36;;;;;;;16.08;12.48;;;;;;;16.17;71.29;99357.88;130299;1098;22566;-58
2021/05/01 07:03:05;;;;;;;19.25;12.85;;;;;;;16.21;70.92;99353.43;130046;1100;22563;-59
2021/05/01 07:05:34;;;;;;;16.38;11.33;;;;;;;16.26;70.25;99359.67;130344;1098;23369;-59
2021/05/01 07:08:02;;;;;;;15.57;11.30;;;;;;;16.31;69.78;99350.51;130262;1098;22540;-60
2021/05/01 07:10:31;;;;;;;13.50;10.08;;;;;;;16.39;68.72;99354.52;130084;1098;22603;-59
2021/05/01 07:13:00;;;;;;;17.73;10.80;;;;;;;16.45;68.00;99351.38;130215;1098;22987;-59
2021/05/01 07:15:29;;;;;;;14.40;10.85;;;;;;;16.52;67.67;99351.00;130301;1098;23075;-60
2021/05/01 07:17:57;;;;;;;14.70;11.60;;;;;;;16.58;67.84;99350.63;130319;1098;23379;-59
2021/05/01 07:20:25;;;;;;;14.23;10.43;;;;;;;16.63;66.01;99346.98;130241;1098;23390;-59
2021/05/01 07:22:54;;;;;;;12.85;10.88;;;;;;;16.66;65.85;99340.88;130355;1098;22579;-58
2021/05/01 07:25:26;;;;;;;14.98;11.23;;;;;;;16.69;66.43;99336.72;129831;1098;22552;-59
2021/05/01 07:28:01;;;;;;;11.05;8.50;;;;;;;16.74;65.04;99353.11;130062;1098;22553;-58
2021/05/01 07:30:30;;;;;;;10.20;6.55;;;;;;;16.77;62.61;99350.58;130295;1098;22599;-58
2021/05/01 07:33:05;;;;;;;9.18;6.70;;;;;;;16.82;62.18;99352.43;130360;1098;22577;-59
2021/05/01 07:35:33;;;;;;;8.05;6.30;;;;;;;16.87;59.49;99346.84;130296;1098;22555;-59
2021/05/01 07:38:05;;;;;;;9.85;7.15;;;;;;;16.93;59.85;99351.11;130327;1098;23535;-59
2021/05/01 07:40:33;;;;;;;10.78;7.10;;;;;;;16.98;59.06;99341.95;130029;1098;23377;-58
2021/05/01 07:43:01;;;;;;;10.33;7.23;;;;;;;17.03;59.14;99339.90;130337;1098;22576;-57
2021/05/01 07:45:30;;;;;;;9.90;7.03;;;;;;;17.07;58.90;99337.36;130009;1098;22574;-57
2021/05/01 07:47:57;;;;;;;8.63;6.58;;;;;;;17.13;58.47;99345.23;130032;1098;24548;-57
2021/05/01 07:50:26;;;;;;;9.20;6.38;;;;;;;17.19;58.29;99343.99;130058;1098;23086;-57
2021/05/01 07:52:54;;;;;;;9.80;6.28;;;;;;;17.23;57.10;99338.70;130309;1098;22554;-58
2021/05/01 07:55:22;;;;;;;7.40;5.63;;;;;;;17.27;56.39;99345.23;129917;1098;22563;-57
2021/05/01 07:57:50;;;;;;;7.15;5.35;;;;;;;17.32;55.02;99343.17;125905;1093;28161;-57
2021/05/01 08:00:19;;;;;;;12.40;5.93;;;;;;;17.37;55.08;99349.70;125812;1098;22808;-57
2021/05/01 08:02:48;;;;;;;9.65;6.18;;;;;;;17.40;55.45;99343.59;129947;1099;23164;-58
2021/05/01 08:05:18;;;;;;;12.03;7.23;;;;;;;17.46;55.41;99350.60;130346;1098;22535;-58
2021/05/01 08:07:47;;;;;;;7.38;5.45;;;;;;;17.51;54.33;99350.51;130332;1098;22535;-58
2021/05/01 08:10:15;;;;;;;6.93;5.13;;;;;;;17.56;53.64;99356.73;130296;1098;22579;-58
2021/05/01 08:12:43;;;;;;;6.75;5.20;;;;;;;17.63;53.98;99351.64;130305;1098;22536;-58
2021/05/01 08:15:11;;;;;;;5.80;5.18;;;;;;;17.69;53.65;99349.60;130245;1098;23161;-58
2021/05/01 08:17:40;;;;;;;8.48;5.63;;;;;;;17.78;54.27;99349.67;130313;1098;22571;-58
2021/05/01 08:20:10;;;;;;;6.83;4.98;;;;;;;17.86;53.63;99352.53;130268;1098;22728;-58
2021/05/01 08:22:38;;;;;;;6.05;4.78;;;;;;;17.92;50.15;99351.27;130304;1098;22522;-58
2021/05/01 08:25:08;;;;;;;5.80;4.58;;;;;;;17.96;50.52;99355.05;130389;1098;23061;-58
2021/05/01 08:27:37;;;;;;;6.48;5.10;;;;;;;18.03;50.28;99362.09;130289;1098;22611;-58
2021/05/01 08:30:08;;;;;;;6.30;4.60;;;;;;;18.08;48.93;99361.95;130274;1098;23396;-58
2021/05/01 08:32:35;;;;;;;5.80;3.88;;;;;;;18.12;49.46;99365.73;130338;1098;22541;-58
2021/05/01 08:35:08;;;;;;;4.20;3.53;;;;;;;18.16;49.33;99373.08;130415;1098;23625;-58
2021/05/01 08:37:36;;;;;;;5.55;4.10;;;;;;;18.22;46.88;99374.56;129983;1098;22579;-58
2021/05/01 08:40:05;;;;;;;6.85;4.00;;;;;;;18.26;43.62;99367.31;130317;1098;23330;-58
2021/05/01 08:42:33;;;;;;;14.35;9.33;;;;;;;18.33;44.26;99373.19;130359;1098;22493;-58
2021/05/01 08:45:04;;;;;;;8.18;5.45;;;;;;;18.37;43.65;99376.96;130334;1098;22547;-58
2021/05/01 08:47:34;;;;;;;7.78;4.25;;;;;;;18.41;43.13;99377.16;130363;1098;23343;-58
2021/05/01 08:50:07;;;;;;;13.35;4.10;;;;;;;18.42;43.33;99366.94;130335;1098;22547;-58
2021/05/01 08:52:35;;;;;;;6.00;4.00;;;;;;;18.42;43.17;99376.03;130068;1098;22541;-58
2021/05/01 08:55:08;;;;;;;4.58;3.55;;;;;;;18.41;43.84;99374.40;130343;1098;22897;-58
2021/05/01 08:57:38;;;;;;;6.35;4.15;;;;;;;18.42;43.04;99372.45;130375;1098;22686;-58
2021/05/01 09:00:07;;;;;;;10.28;3.80;;;;;;;18.43;42.07;99368.57;130309;1098;22656;-58
2021/05/01 09:02:34;;;;;;;7.78;4.15;;;;;;;18.42;42.87;99378.80;130078;1099;22576;-58
2021/05/01 09:05:03;;;;;;;6.20;3.70;;;;;;;18.44;44.09;99384.81;130003;1098;22654;-58
2021/05/01 09:07:38;;;;;;;5.85;4.28;;;;;;;18.48;44.38;99385.80;130195;1098;23450;-58
2021/05/01 09:10:06;;;;;;;5.65;4.30;;;;;;;18.49;44.49;99372.81;130296;1098;23635;-58
2021/05/01 09:12:38;;;;;;;5.73;3.78;;;;;;;18.51;42.77;99376.08;130362;1098;23282;-58
2021/05/01 09:15:10;;;;;;;6.48;4.10;;;;;;;18.54;44.42;99378.22;130339;1098;22535;-58
2021/05/01 09:17:38;;;;;;;7.98;4.45;;;;;;;18.60;43.57;99374.25;130363;1098;22537;-58
2021/05/01 09:20:10;;;;;;;9.38;4.55;;;;;;;18.66;43.44;99378.49;130026;1098;22535;-58
2021/05/01 09:22:51;;;;;;;4.38;3.70;;;;;;;18.72;43.94;99374.48;130380;1098;22504;-58
2021/05/01 09:25:19;;;;;;;4.30;3.80;;;;;;;18.77;43.74;99373.52;130266;1098;23352;-58
2021/05/01 09:28:18;;;;;;;6.60;3.30;;;;;;;18.80;43.75;99373.71;130345;1098;23276;-58
2021/05/01 09:33:37;;;;;;;5.88;4.00;;;;;;;18.88;42.74;99381.24;125692;1090;22849;-56
2021/05/01 09:36:12;;;;;;;5.33;3.98;;;;;;;18.94;42.33;99368.10;129934;1101;22603;-58
2021/05/01 09:38:50;;;;;;;5.85;3.93;;;;;;;18.97;41.49;99368.29;130018;1101;26315;-58
2021/05/01 09:41:24;;;;;;;6.48;3.45;;;;;;;18.99;41.08;99374.31;129959;1101;22615;-57
2021/05/01 09:44:08;;;;;;;7.33;4.10;;;;;;;19.02;42.18;99375.63;130051;1101;22568;-58
2021/05/01 09:46:37;;;;;;;4.43;3.80;;;;;;;19.06;42.08;99371.08;129982;1101;22538;-58
2021/05/01 09:49:25;;;;;;;6.28;3.95;;;;;;;19.08;39.65;99371.58;130004;1101;22644;-58
2021/05/01 09:51:53;;;;;;;3.90;3.00;;;;;;;19.04;38.48;99365.09;129965;1101;23093;-57
2021/05/01 09:54:37;;;;;;;6.10;3.00;;;;;;;19.03;39.25;99368.98;130026;1101;22516;-58
2021/05/01 09:57:09;;;;;;;5.55;3.45;;;;;;;19.04;39.92;99362.33;130043;1101;22577;-58
2021/05/01 09:59:45;;;;;;;11.53;4.30;;;;;;;19.06;40.72;99365.56;129985;1101;22553;-57
2021/05/01 10:02:14;;;;;;;4.35;3.28;;;;;;;19.11;40.76;99359.91;129930;1101;22538;-58
2021/05/01 10:04:57;;;;;;;5.20;3.90;;;;;;;19.15;40.70;99362.86;130035;1101;22568;-58
2021/05/01 10:07:25;;;;;;;5.60;3.88;;;;;;;19.17;41.03;99358.64;129999;1101;22574;-57
2021/05/01 10:09:57;;;;;;;7.23;4.05;;;;;;;19.20;41.06;99362.70;130005;1101;22667;-57
2021/05/01 10:12:38;;;;;;;7.45;3.60;;;;;;;19.23;41.56;99356.54;129970;1101;23502;-57
2021/05/01 10:15:15;;;;;;;9.00;3.55;;;;;;;19.25;40.45;99363.38;130026;1101;22534;-58
2021/05/01 10:17:46;;;;;;;;;;;;;;;19.28;41.27;99357.22;129872;1101;23653;-58
2021/05/01 10:20:17;;;;;;;4.60;3.35;;;;;;;19.31;40.63;99359.35;130006;1101;21317;-57
2021/05/01 10:22:50;;;;;;;5.53;3.75;;;;;;;19.36;41.13;99347.32;130493;1095;22700;-58
2021/05/01 10:25:18;;;;;;;5.78;3.93;;;;;;;19.41;40.27;99353.53;130488;1095;22545;-57
2021/05/01 10:27:58;;;;;;;4.60;3.28;;;;;;;19.46;40.69;99354.52;130521;1095;22715;-58
2021/05/01 10:30:29;;;;;;;7.35;3.35;;;;;;;19.48;40.46;99353.04;130507;1095;23084;-58
2021/05/01 10:36:01;;;;;;;5.58;3.20;;;;;;;19.55;40.97;99349.85;130485;1095;23462;-58
2021/05/01 10:38:29;;;;;;;4.68;3.38;;;;;;;19.58;40.50;99358.33;130440;1095;22523;-57
2021/05/01 10:41:01;;;;;;;4.53;3.70;;;;;;;19.59;39.40;99356.38;130557;1095;22650;-58
2021/05/01 10:43:31;;;;;;;5.70;3.75;;;;;;;19.54;40.27;99360.09;130380;1096;22623;-58
2021/05/01 10:46:09;;;;;;;7.00;3.30;;;;;;;19.53;40.52;99354.88;130524;1095;22655;-58
2021/05/01 10:48:47;;;;;;;;;;;;;;;19.55;41.37;99363.67;130522;1095;23246;-58
2021/05/01 10:51:20;;;;;;;3.70;3.28;;;;;;;19.54;40.08;99351.80;130399;1098;21276;-57
2021/05/01 10:53:48;;;;;;;5.78;3.60;;;;;;;19.57;41.39;99353.11;130448;1095;22612;-58
2021/05/01 10:56:26;;;;;;;4.65;3.08;;;;;;;19.58;40.86;99349.22;130372;1097;22594;-58
2021/05/01 10:58:54;;;;;;;4.95;3.03;;;;;;;19.61;38.96;99351.34;130548;1095;22536;-58
2021/05/01 11:01:27;;;;;;;3.50;3.18;;;;;;;19.58;38.72;99351.98;130347;1095;22539;-58
2021/05/01 11:03:58;;;;;;;3.75;3.10;;;;;;;19.62;38.08;99344.68;130341;1097;22585;-58
2021/05/01 11:06:26;;;;;;;3.98;2.88;;;;;;;19.64;38.28;99342.38;130475;1095;22544;-58
2021/05/01 11:09:08;;;;;;;3.45;2.60;;;;;;;19.68;35.64;99346.14;130519;1095;22635;-58
2021/05/01 11:11:40;;;;;;;3.58;2.60;;;;;;;19.70;37.75;99343.88;130534;1095;22522;-57
2021/05/01 11:14:23;;;;;;;4.33;2.83;;;;;;;19.73;37.58;99344.05;130462;1095;22589;-57
2021/05/01 11:17:02;;;;;;;4.78;3.13;;;;;;;19.77;37.76;99339.48;130536;1095;22650;-57
2021/05/01 11:19:32;;;;;;;5.03;3.03;;;;;;;19.80;37.68;99343.55;130471;1095;22578;-57
2021/05/01 11:22:00;;;;;;;4.53;2.83;;;;;;;19.83;37.94;99339.33;130348;1097;22535;-58
2021/05/01 11:24:28;;;;;;;5.48;2.93;;;;;;;19.83;36.52;99353.16;130350;1095;22596;-57
2021/05/01 11:26:56;;;;;;;4.78;2.78;;;;;;;19.82;36.06;99335.75;130361;1095;22586;-57
2021/05/01 11:29:24;;;;;;;4.53;3.03;;;;;;;19.83;36.51;99319.98;130375;1095;22711;-58
2021/05/01 11:31:53;;;;;;;5.45;2.90;;;;;;;19.82;36.30;99323.88;130443;1095;22531;-58
2021/05/01 11:34:21;;;;;;;3.20;2.70;;;;;;;19.80;35.47;99328.91;130350;1096;23165;-58
2021/05/01 11:36:54;;;;;;;4.50;3.05;;;;;;;19.78;35.61;99326.47;130356;1096;22522;-58
2021/05/01 11:39:22;;;;;;;4.03;3.08;;;;;;;19.76;35.41;99314.95;130400;1095;23173;-58